sensor_id;sensor_type;location;lat;lon;timestamp;temperature;humidity
15930;DHT22;8064;51.142;4.780;2024-02-21T00:01:53;10.20;99.90
15930;DHT22;8064;51.142;4.780;2024-02-21T00:04:19;10.20;99.90
15930;DHT22;8064;51.142;4.780;2024-02-21T00:06:45;10.20;99.90
15930;DHT22;8064;51.142;4.780;2024-02-21T00:09:10;10.20;99.90
15930;DHT22;8064;51.142;4.780;2024-02-21T00:11:36;10.20;99.90
15930;DHT22;8064;51.142;4.780;2024-02-21T00:14:02;10.20;99.90
15930;DHT22;8064;51.142;4.780;2024-02-21T00:16:28;10.20;99.90
15930;DHT22;8064;51.142;4.780;2024-02-21T00:18:53;10.20;99.90
15930;DHT22;8064;51.142;4.780;2024-02-21T00:21:19;10.20;99.90
15930;DHT22;8064;51.142;4.780;2024-02-21T00:23:45;10.20;99.90
15930;DHT22;8064;51.142;4.780;2024-02-21T00:26:12;10.20;99.90
15930;DHT22;8064;51.142;4.780;2024-02-21T00:28:39;10.20;99.90
15930;DHT22;8064;51.142;4.780;2024-02-21T00:31:04;10.20;99.90
15930;DHT22;8064;51.142;4.780;2024-02-21T00:33:30;10.20;99.90
15930;DHT22;8064;51.142;4.780;2024-02-21T00:35:56;10.20;99.90
15930;DHT22;8064;51.142;4.780;2024-02-21T00:38:22;10.20;99.90
15930;DHT22;8064;51.142;4.780;2024-02-21T00:40:47;10.20;99.90
15930;DHT22;8064;51.142;4.780;2024-02-21T00:43:13;10.20;99.90
15930;DHT22;8064;51.142;4.780;2024-02-21T00:45:39;10.20;99.90
15930;DHT22;8064;51.142;4.780;2024-02-21T00:48:05;10.20;99.90
15930;DHT22;8064;51.142;4.780;2024-02-21T00:50:31;10.20;99.90
15930;DHT22;8064;51.142;4.780;2024-02-21T00:52:56;10.20;99.90
15930;DHT22;8064;51.142;4.780;2024-02-21T00:55:22;10.20;99.90
15930;DHT22;8064;51.142;4.780;2024-02-21T00:57:48;10.10;99.90
15930;DHT22;8064;51.142;4.780;2024-02-21T01:00:14;10.10;99.90
15930;DHT22;8064;51.142;4.780;2024-02-21T01:02:40;10.10;99.90
15930;DHT22;8064;51.142;4.780;2024-02-21T01:05:06;10.10;99.90
15930;DHT22;8064;51.142;4.780;2024-02-21T01:07:31;10.10;99.90
15930;DHT22;8064;51.142;4.780;2024-02-21T01:09:57;10.10;99.90
15930;DHT22;8064;51.142;4.780;2024-02-21T01:12:23;10.10;99.90
15930;DHT22;8064;51.142;4.780;2024-02-21T01:14:49;10.10;99.90
15930;DHT22;8064;51.142;4.780;2024-02-21T01:17:15;10.10;99.90
15930;DHT22;8064;51.142;4.780;2024-02-21T01:19:41;10.00;99.90
15930;DHT22;8064;51.142;4.780;2024-02-21T01:22:06;10.00;99.90
15930;DHT22;8064;51.142;4.780;2024-02-21T01:24:32;10.00;99.90
15930;DHT22;8064;51.142;4.780;2024-02-21T01:26:58;10.00;99.90
15930;DHT22;8064;51.142;4.780;2024-02-21T01:29:24;10.00;99.90
15930;DHT22;8064;51.142;4.780;2024-02-21T01:31:50;10.00;99.90
15930;DHT22;8064;51.142;4.780;2024-02-21T01:34:16;10.00;99.90
15930;DHT22;8064;51.142;4.780;2024-02-21T01:36:41;10.00;99.90
15930;DHT22;8064;51.142;4.780;2024-02-21T01:39:07;10.00;99.90
15930;DHT22;8064;51.142;4.780;2024-02-21T01:41:33;10.00;99.90
15930;DHT22;8064;51.142;4.780;2024-02-21T01:43:59;10.00;99.90
15930;DHT22;8064;51.142;4.780;2024-02-21T01:46:25;10.00;99.90
15930;DHT22;8064;51.142;4.780;2024-02-21T01:48:55;10.00;99.90
15930;DHT22;8064;51.142;4.780;2024-02-21T01:51:21;10.10;99.90
15930;DHT22;8064;51.142;4.780;2024-02-21T01:53:47;10.10;99.90
15930;DHT22;8064;51.142;4.780;2024-02-21T01:56:13;10.10;99.90
15930;DHT22;8064;51.142;4.780;2024-02-21T01:58:40;10.10;99.90
15930;DHT22;8064;51.142;4.780;2024-02-21T02:01:07;10.10;99.90
15930;DHT22;8064;51.142;4.780;2024-02-21T02:03:34;10.10;99.90
15930;DHT22;8064;51.142;4.780;2024-02-21T02:06:00;10.10;99.90
15930;DHT22;8064;51.142;4.780;2024-02-21T02:08:26;10.10;99.90
15930;DHT22;8064;51.142;4.780;2024-02-21T02:10:52;10.10;99.90
15930;DHT22;8064;51.142;4.780;2024-02-21T02:13:18;10.10;99.90
15930;DHT22;8064;51.142;4.780;2024-02-21T02:15:45;10.10;99.90
15930;DHT22;8064;51.142;4.780;2024-02-21T02:18:12;10.10;99.90
15930;DHT22;8064;51.142;4.780;2024-02-21T02:20:39;10.00;99.90
15930;DHT22;8064;51.142;4.780;2024-02-21T02:23:09;10.00;99.90
15930;DHT22;8064;51.142;4.780;2024-02-21T02:25:36;10.00;99.90
15930;DHT22;8064;51.142;4.780;2024-02-21T02:28:03;10.00;99.90
15930;DHT22;8064;51.142;4.780;2024-02-21T02:30:32;10.00;99.90
15930;DHT22;8064;51.142;4.780;2024-02-21T02:32:59;10.00;99.90
15930;DHT22;8064;51.142;4.780;2024-02-21T02:35:25;10.00;99.90
15930;DHT22;8064;51.142;4.780;2024-02-21T02:37:50;10.00;99.90
15930;DHT22;8064;51.142;4.780;2024-02-21T02:40:18;10.00;99.90
15930;DHT22;8064;51.142;4.780;2024-02-21T02:42:44;10.00;99.90
15930;DHT22;8064;51.142;4.780;2024-02-21T02:45:10;10.10;99.90
15930;DHT22;8064;51.142;4.780;2024-02-21T02:47:35;10.10;99.90
15930;DHT22;8064;51.142;4.780;2024-02-21T02:50:01;10.10;99.90
15930;DHT22;8064;51.142;4.780;2024-02-21T02:52:27;10.10;99.90
15930;DHT22;8064;51.142;4.780;2024-02-21T02:54:53;10.10;99.90
15930;DHT22;8064;51.142;4.780;2024-02-21T02:57:22;10.10;99.90
15930;DHT22;8064;51.142;4.780;2024-02-21T02:59:49;10.10;99.90
15930;DHT22;8064;51.142;4.780;2024-02-21T03:02:15;10.10;99.90
15930;DHT22;8064;51.142;4.780;2024-02-21T03:04:41;10.10;99.90
15930;DHT22;8064;51.142;4.780;2024-02-21T03:07:06;10.10;99.90
15930;DHT22;8064;51.142;4.780;2024-02-21T03:09:32;10.10;99.90
15930;DHT22;8064;51.142;4.780;2024-02-21T03:11:58;10.10;99.90
15930;DHT22;8064;51.142;4.780;2024-02-21T03:14:28;10.10;99.90
15930;DHT22;8064;51.142;4.780;2024-02-21T03:16:54;10.00;99.90
15930;DHT22;8064;51.142;4.780;2024-02-21T03:19:20;10.00;99.90
15930;DHT22;8064;51.142;4.780;2024-02-21T03:21:46;10.00;99.90
15930;DHT22;8064;51.142;4.780;2024-02-21T03:24:11;9.90;99.90
15930;DHT22;8064;51.142;4.780;2024-02-21T03:26:37;9.90;99.90
15930;DHT22;8064;51.142;4.780;2024-02-21T03:29:03;9.90;99.90
15930;DHT22;8064;51.142;4.780;2024-02-21T03:31:29;9.90;99.90
15930;DHT22;8064;51.142;4.780;2024-02-21T03:33:55;9.90;99.90
15930;DHT22;8064;51.142;4.780;2024-02-21T03:36:21;9.90;99.90
15930;DHT22;8064;51.142;4.780;2024-02-21T03:38:46;9.90;99.90
15930;DHT22;8064;51.142;4.780;2024-02-21T03:41:13;9.90;99.90
15930;DHT22;8064;51.142;4.780;2024-02-21T03:43:38;9.90;99.90
15930;DHT22;8064;51.142;4.780;2024-02-21T03:46:05;9.90;99.90
15930;DHT22;8064;51.142;4.780;2024-02-21T03:48:31;9.90;99.90
15930;DHT22;8064;51.142;4.780;2024-02-21T03:50:57;9.90;99.90
15930;DHT22;8064;51.142;4.780;2024-02-21T03:53:22;9.90;99.90
15930;DHT22;8064;51.142;4.780;2024-02-21T03:55:48;9.90;99.90
15930;DHT22;8064;51.142;4.780;2024-02-21T03:58:14;9.90;99.90
15930;DHT22;8064;51.142;4.780;2024-02-21T04:00:39;9.90;99.90
15930;DHT22;8064;51.142;4.780;2024-02-21T04:03:05;9.90;99.90
15930;DHT22;8064;51.142;4.780;2024-02-21T04:05:32;9.90;99.90
15930;DHT22;8064;51.142;4.780;2024-02-21T04:07:57;9.90;99.90
15930;DHT22;8064;51.142;4.780;2024-02-21T04:10:24;9.90;99.90
15930;DHT22;8064;51.142;4.780;2024-02-21T04:12:49;9.90;99.90
15930;DHT22;8064;51.142;4.780;2024-02-21T04:15:16;9.90;99.90
15930;DHT22;8064;51.142;4.780;2024-02-21T04:17:42;9.90;99.90
15930;DHT22;8064;51.142;4.780;2024-02-21T04:20:14;9.90;99.90
15930;DHT22;8064;51.142;4.780;2024-02-21T04:22:40;9.90;99.90
15930;DHT22;8064;51.142;4.780;2024-02-21T04:25:06;9.90;99.90
15930;DHT22;8064;51.142;4.780;2024-02-21T04:27:32;9.90;99.90
15930;DHT22;8064;51.142;4.780;2024-02-21T04:29:59;9.90;99.90
15930;DHT22;8064;51.142;4.780;2024-02-21T04:32:24;9.90;99.90
15930;DHT22;8064;51.142;4.780;2024-02-21T04:34:53;9.90;99.90
15930;DHT22;8064;51.142;4.780;2024-02-21T04:37:18;9.90;99.90
15930;DHT22;8064;51.142;4.780;2024-02-21T04:39:44;9.90;99.90
15930;DHT22;8064;51.142;4.780;2024-02-21T04:42:10;9.90;99.90
15930;DHT22;8064;51.142;4.780;2024-02-21T04:44:36;9.90;99.90
15930;DHT22;8064;51.142;4.780;2024-02-21T04:47:02;9.90;99.90
15930;DHT22;8064;51.142;4.780;2024-02-21T04:49:29;9.90;99.90
15930;DHT22;8064;51.142;4.780;2024-02-21T04:51:55;9.90;99.90
15930;DHT22;8064;51.142;4.780;2024-02-21T04:54:20;9.90;99.90
15930;DHT22;8064;51.142;4.780;2024-02-21T04:56:46;9.90;99.90
15930;DHT22;8064;51.142;4.780;2024-02-21T04:59:12;9.90;99.90
15930;DHT22;8064;51.142;4.780;2024-02-21T05:01:38;9.90;99.90
15930;DHT22;8064;51.142;4.780;2024-02-21T05:04:03;9.80;99.90
15930;DHT22;8064;51.142;4.780;2024-02-21T05:06:29;9.80;99.90
15930;DHT22;8064;51.142;4.780;2024-02-21T05:08:55;9.80;99.90
15930;DHT22;8064;51.142;4.780;2024-02-21T05:11:21;9.80;99.90
15930;DHT22;8064;51.142;4.780;2024-02-21T05:13:47;9.80;99.90
15930;DHT22;8064;51.142;4.780;2024-02-21T05:16:13;9.80;99.90
15930;DHT22;8064;51.142;4.780;2024-02-21T05:18:40;9.80;99.90
15930;DHT22;8064;51.142;4.780;2024-02-21T05:21:06;9.80;99.90
15930;DHT22;8064;51.142;4.780;2024-02-21T05:23:31;9.80;99.90
15930;DHT22;8064;51.142;4.780;2024-02-21T05:25:57;9.80;99.90
15930;DHT22;8064;51.142;4.780;2024-02-21T05:28:23;9.80;99.90
15930;DHT22;8064;51.142;4.780;2024-02-21T05:30:49;9.80;99.90
15930;DHT22;8064;51.142;4.780;2024-02-21T05:33:14;9.80;99.90
15930;DHT22;8064;51.142;4.780;2024-02-21T05:35:47;9.80;99.90
15930;DHT22;8064;51.142;4.780;2024-02-21T05:38:14;9.80;99.90
15930;DHT22;8064;51.142;4.780;2024-02-21T05:40:40;9.80;99.90
15930;DHT22;8064;51.142;4.780;2024-02-21T05:43:07;9.80;99.90
15930;DHT22;8064;51.142;4.780;2024-02-21T05:45:34;9.70;99.90
15930;DHT22;8064;51.142;4.780;2024-02-21T05:48:00;9.70;99.90
15930;DHT22;8064;51.142;4.780;2024-02-21T05:50:26;9.70;99.90
15930;DHT22;8064;51.142;4.780;2024-02-21T05:52:54;9.70;99.90
15930;DHT22;8064;51.142;4.780;2024-02-21T05:55:21;9.70;99.90
15930;DHT22;8064;51.142;4.780;2024-02-21T05:57:47;9.70;99.90
15930;DHT22;8064;51.142;4.780;2024-02-21T06:00:13;9.70;99.90
15930;DHT22;8064;51.142;4.780;2024-02-21T06:02:39;9.70;99.90
15930;DHT22;8064;51.142;4.780;2024-02-21T06:05:06;9.70;99.90
15930;DHT22;8064;51.142;4.780;2024-02-21T06:07:33;9.70;99.90
15930;DHT22;8064;51.142;4.780;2024-02-21T06:10:01;9.70;99.90
15930;DHT22;8064;51.142;4.780;2024-02-21T06:12:27;9.70;99.90
15930;DHT22;8064;51.142;4.780;2024-02-21T06:14:52;9.70;99.90
15930;DHT22;8064;51.142;4.780;2024-02-21T06:17:18;9.70;99.90
15930;DHT22;8064;51.142;4.780;2024-02-21T06:19:44;9.70;99.90
15930;DHT22;8064;51.142;4.780;2024-02-21T06:22:10;9.70;99.90
15930;DHT22;8064;51.142;4.780;2024-02-21T06:24:36;9.70;99.90
15930;DHT22;8064;51.142;4.780;2024-02-21T06:27:03;9.60;99.90
15930;DHT22;8064;51.142;4.780;2024-02-21T06:29:29;9.70;99.90
15930;DHT22;8064;51.142;4.780;2024-02-21T06:31:54;9.70;99.90
15930;DHT22;8064;51.142;4.780;2024-02-21T06:34:20;9.70;99.90
15930;DHT22;8064;51.142;4.780;2024-02-21T06:36:46;9.70;99.90
15930;DHT22;8064;51.142;4.780;2024-02-21T06:39:12;9.70;99.90
15930;DHT22;8064;51.142;4.780;2024-02-21T06:41:37;9.70;99.90
15930;DHT22;8064;51.142;4.780;2024-02-21T06:44:03;9.70;99.90
15930;DHT22;8064;51.142;4.780;2024-02-21T06:46:29;9.70;99.90
15930;DHT22;8064;51.142;4.780;2024-02-21T06:48:56;9.70;99.90
15930;DHT22;8064;51.142;4.780;2024-02-21T06:51:22;9.80;99.90
15930;DHT22;8064;51.142;4.780;2024-02-21T06:53:48;9.80;99.90
15930;DHT22;8064;51.142;4.780;2024-02-21T06:56:14;9.80;99.90
15930;DHT22;8064;51.142;4.780;2024-02-21T06:58:39;9.80;99.90
15930;DHT22;8064;51.142;4.780;2024-02-21T07:01:06;9.80;99.90
15930;DHT22;8064;51.142;4.780;2024-02-21T07:03:32;9.80;99.90
15930;DHT22;8064;51.142;4.780;2024-02-21T07:05:57;9.80;99.90
15930;DHT22;8064;51.142;4.780;2024-02-21T07:08:23;9.90;99.90
15930;DHT22;8064;51.142;4.780;2024-02-21T07:10:49;9.90;99.90
15930;DHT22;8064;51.142;4.780;2024-02-21T07:13:14;9.90;99.90
15930;DHT22;8064;51.142;4.780;2024-02-21T07:15:41;9.90;99.90
15930;DHT22;8064;51.142;4.780;2024-02-21T07:18:07;10.00;99.90
15930;DHT22;8064;51.142;4.780;2024-02-21T07:20:33;10.00;99.90
15930;DHT22;8064;51.142;4.780;2024-02-21T07:22:59;10.00;99.90
15930;DHT22;8064;51.142;4.780;2024-02-21T07:25:25;10.00;99.90
15930;DHT22;8064;51.142;4.780;2024-02-21T07:27:51;10.00;99.90
15930;DHT22;8064;51.142;4.780;2024-02-21T07:30:17;10.00;99.90
15930;DHT22;8064;51.142;4.780;2024-02-21T07:32:42;10.10;99.90
15930;DHT22;8064;51.142;4.780;2024-02-21T07:35:08;10.10;99.90
15930;DHT22;8064;51.142;4.780;2024-02-21T07:37:38;10.10;99.90
15930;DHT22;8064;51.142;4.780;2024-02-21T07:40:06;10.10;99.90
15930;DHT22;8064;51.142;4.780;2024-02-21T07:42:31;10.10;99.90
15930;DHT22;8064;51.142;4.780;2024-02-21T07:44:57;10.10;99.90
15930;DHT22;8064;51.142;4.780;2024-02-21T07:47:23;10.10;99.90
15930;DHT22;8064;51.142;4.780;2024-02-21T07:49:49;10.10;99.90
15930;DHT22;8064;51.142;4.780;2024-02-21T07:52:15;10.10;99.90
15930;DHT22;8064;51.142;4.780;2024-02-21T07:54:41;10.10;99.90
15930;DHT22;8064;51.142;4.780;2024-02-21T07:57:07;10.10;99.90
15930;DHT22;8064;51.142;4.780;2024-02-21T07:59:33;10.10;99.90
15930;DHT22;8064;51.142;4.780;2024-02-21T08:01:59;10.10;99.90
15930;DHT22;8064;51.142;4.780;2024-02-21T08:04:25;10.10;99.90
15930;DHT22;8064;51.142;4.780;2024-02-21T08:06:53;10.10;99.90
15930;DHT22;8064;51.142;4.780;2024-02-21T08:09:19;10.00;99.90
15930;DHT22;8064;51.142;4.780;2024-02-21T08:11:45;10.00;99.90
15930;DHT22;8064;51.142;4.780;2024-02-21T08:14:11;10.00;99.90
15930;DHT22;8064;51.142;4.780;2024-02-21T08:16:36;10.00;99.90
15930;DHT22;8064;51.142;4.780;2024-02-21T08:19:02;10.00;99.90
15930;DHT22;8064;51.142;4.780;2024-02-21T08:21:29;10.00;99.90
15930;DHT22;8064;51.142;4.780;2024-02-21T08:23:55;10.00;99.90
15930;DHT22;8064;51.142;4.780;2024-02-21T08:26:21;9.90;99.90
15930;DHT22;8064;51.142;4.780;2024-02-21T08:28:46;9.90;99.90
15930;DHT22;8064;51.142;4.780;2024-02-21T08:31:19;9.90;99.90
15930;DHT22;8064;51.142;4.780;2024-02-21T08:33:45;9.90;99.90
15930;DHT22;8064;51.142;4.780;2024-02-21T08:36:18;9.90;99.90
15930;DHT22;8064;51.142;4.780;2024-02-21T08:38:44;9.90;99.90
15930;DHT22;8064;51.142;4.780;2024-02-21T08:41:10;9.90;99.90
15930;DHT22;8064;51.142;4.780;2024-02-21T08:43:36;9.90;99.90
15930;DHT22;8064;51.142;4.780;2024-02-21T08:46:02;9.90;99.90
15930;DHT22;8064;51.142;4.780;2024-02-21T08:48:28;9.90;99.90
15930;DHT22;8064;51.142;4.780;2024-02-21T08:50:54;9.90;99.90
15930;DHT22;8064;51.142;4.780;2024-02-21T08:53:20;10.00;99.90
15930;DHT22;8064;51.142;4.780;2024-02-21T08:55:46;10.00;99.90
15930;DHT22;8064;51.142;4.780;2024-02-21T08:58:12;10.00;99.90
15930;DHT22;8064;51.142;4.780;2024-02-21T09:00:37;10.00;99.90
15930;DHT22;8064;51.142;4.780;2024-02-21T09:03:03;10.00;99.90
15930;DHT22;8064;51.142;4.780;2024-02-21T09:05:29;10.00;99.90
15930;DHT22;8064;51.142;4.780;2024-02-21T09:07:55;10.00;99.90
15930;DHT22;8064;51.142;4.780;2024-02-21T09:10:21;10.00;99.90
15930;DHT22;8064;51.142;4.780;2024-02-21T09:12:47;10.00;99.90
15930;DHT22;8064;51.142;4.780;2024-02-21T09:15:13;10.10;99.90
15930;DHT22;8064;51.142;4.780;2024-02-21T09:17:39;10.10;99.90
15930;DHT22;8064;51.142;4.780;2024-02-21T09:20:05;10.10;99.90
15930;DHT22;8064;51.142;4.780;2024-02-21T09:22:32;10.20;99.90
15930;DHT22;8064;51.142;4.780;2024-02-21T09:25:00;10.20;99.90
15930;DHT22;8064;51.142;4.780;2024-02-21T09:27:26;10.30;99.90
15930;DHT22;8064;51.142;4.780;2024-02-21T09:29:52;10.30;99.90
15930;DHT22;8064;51.142;4.780;2024-02-21T09:32:18;10.40;99.90
15930;DHT22;8064;51.142;4.780;2024-02-21T09:34:44;10.40;99.90
15930;DHT22;8064;51.142;4.780;2024-02-21T09:37:11;10.50;99.90
15930;DHT22;8064;51.142;4.780;2024-02-21T09:39:36;10.50;99.90
15930;DHT22;8064;51.142;4.780;2024-02-21T09:42:06;10.60;99.90
15930;DHT22;8064;51.142;4.780;2024-02-21T09:44:37;10.60;99.90
15930;DHT22;8064;51.142;4.780;2024-02-21T09:47:07;10.70;99.90
15930;DHT22;8064;51.142;4.780;2024-02-21T09:49:35;10.70;99.90
15930;DHT22;8064;51.142;4.780;2024-02-21T09:52:05;10.80;99.90
15930;DHT22;8064;51.142;4.780;2024-02-21T09:54:33;10.90;99.90
15930;DHT22;8064;51.142;4.780;2024-02-21T09:57:00;11.00;99.90
15930;DHT22;8064;51.142;4.780;2024-02-21T09:59:28;11.00;99.90
15930;DHT22;8064;51.142;4.780;2024-02-21T10:01:54;11.10;99.90
15930;DHT22;8064;51.142;4.780;2024-02-21T10:04:20;11.10;99.90
15930;DHT22;8064;51.142;4.780;2024-02-21T10:06:47;11.20;99.90
15930;DHT22;8064;51.142;4.780;2024-02-21T10:11:49;11.40;99.90
15930;DHT22;8064;51.142;4.780;2024-02-21T10:14:15;11.40;99.90
15930;DHT22;8064;51.142;4.780;2024-02-21T10:16:41;11.40;99.90
15930;DHT22;8064;51.142;4.780;2024-02-21T10:19:16;11.50;99.90
15930;DHT22;8064;51.142;4.780;2024-02-21T10:21:42;11.50;99.90
15930;DHT22;8064;51.142;4.780;2024-02-21T10:24:08;11.60;99.90
15930;DHT22;8064;51.142;4.780;2024-02-21T10:26:35;11.60;99.90
15930;DHT22;8064;51.142;4.780;2024-02-21T10:29:02;11.60;99.90
15930;DHT22;8064;51.142;4.780;2024-02-21T10:31:32;11.60;99.90
15930;DHT22;8064;51.142;4.780;2024-02-21T10:34:01;11.60;99.90
15930;DHT22;8064;51.142;4.780;2024-02-21T10:36:31;11.50;99.90
15930;DHT22;8064;51.142;4.780;2024-02-21T10:39:00;11.50;99.90
15930;DHT22;8064;51.142;4.780;2024-02-21T10:41:26;11.40;99.90
15930;DHT22;8064;51.142;4.780;2024-02-21T10:43:54;11.30;99.90
15930;DHT22;8064;51.142;4.780;2024-02-21T10:46:23;11.40;99.90
15930;DHT22;8064;51.142;4.780;2024-02-21T10:49:03;11.40;99.90
15930;DHT22;8064;51.142;4.780;2024-02-21T10:51:34;11.40;99.90
15930;DHT22;8064;51.142;4.780;2024-02-21T10:56:39;11.50;99.90
15930;DHT22;8064;51.142;4.780;2024-02-21T10:59:07;11.60;99.90
15930;DHT22;8064;51.142;4.780;2024-02-21T11:01:33;11.60;99.90
15930;DHT22;8064;51.142;4.780;2024-02-21T11:04:04;11.60;99.90
15930;DHT22;8064;51.142;4.780;2024-02-21T11:06:30;11.60;99.90
15930;DHT22;8064;51.142;4.780;2024-02-21T11:09:03;11.50;99.90
15930;DHT22;8064;51.142;4.780;2024-02-21T11:11:38;11.50;99.90
15930;DHT22;8064;51.142;4.780;2024-02-21T11:14:07;11.50;99.90
15930;DHT22;8064;51.142;4.780;2024-02-21T11:19:05;11.60;99.90
15930;DHT22;8064;51.142;4.780;2024-02-21T11:21:35;11.80;99.90
15930;DHT22;8064;51.142;4.780;2024-02-21T11:24:02;12.20;99.90
15930;DHT22;8064;51.142;4.780;2024-02-21T11:26:29;12.90;99.90
15930;DHT22;8064;51.142;4.780;2024-02-21T11:28:57;13.20;99.90
15930;DHT22;8064;51.142;4.780;2024-02-21T11:31:23;13.40;99.90
15930;DHT22;8064;51.142;4.780;2024-02-21T11:33:49;13.50;99.90
15930;DHT22;8064;51.142;4.780;2024-02-21T11:36:26;13.60;99.90
15930;DHT22;8064;51.142;4.780;2024-02-21T11:38:52;13.90;99.90
15930;DHT22;8064;51.142;4.780;2024-02-21T11:41:19;14.40;99.90
15930;DHT22;8064;51.142;4.780;2024-02-21T11:43:49;15.00;99.90
15930;DHT22;8064;51.142;4.780;2024-02-21T11:46:16;15.00;99.90
15930;DHT22;8064;51.142;4.780;2024-02-21T11:48:43;14.60;99.90
15930;DHT22;8064;51.142;4.780;2024-02-21T11:51:21;14.30;99.90
15930;DHT22;8064;51.142;4.780;2024-02-21T11:53:48;14.00;99.90
15930;DHT22;8064;51.142;4.780;2024-02-21T11:56:14;13.80;99.90
15930;DHT22;8064;51.142;4.780;2024-02-21T11:58:40;13.50;99.90
15930;DHT22;8064;51.142;4.780;2024-02-21T12:01:05;13.30;99.90
15930;DHT22;8064;51.142;4.780;2024-02-21T12:03:33;13.10;99.90
15930;DHT22;8064;51.142;4.780;2024-02-21T12:06:02;13.00;99.90
15930;DHT22;8064;51.142;4.780;2024-02-21T12:08:41;12.90;99.90
15930;DHT22;8064;51.142;4.780;2024-02-21T12:11:17;12.80;99.90
15930;DHT22;8064;51.142;4.780;2024-02-21T12:13:44;12.70;99.90
15930;DHT22;8064;51.142;4.780;2024-02-21T12:16:11;12.60;99.90
15930;DHT22;8064;51.142;4.780;2024-02-21T12:18:39;12.60;99.90
15930;DHT22;8064;51.142;4.780;2024-02-21T12:21:05;12.50;99.90
15930;DHT22;8064;51.142;4.780;2024-02-21T12:23:31;12.50;99.90
15930;DHT22;8064;51.142;4.780;2024-02-21T12:25:59;12.40;99.90
15930;DHT22;8064;51.142;4.780;2024-02-21T12:28:25;12.30;99.90
15930;DHT22;8064;51.142;4.780;2024-02-21T12:30:51;12.30;99.90
15930;DHT22;8064;51.142;4.780;2024-02-21T12:33:18;12.30;99.90
15930;DHT22;8064;51.142;4.780;2024-02-21T12:35:43;12.20;99.90
15930;DHT22;8064;51.142;4.780;2024-02-21T12:38:09;12.20;99.90
15930;DHT22;8064;51.142;4.780;2024-02-21T12:40:36;12.20;99.90
15930;DHT22;8064;51.142;4.780;2024-02-21T12:43:02;12.20;99.90
15930;DHT22;8064;51.142;4.780;2024-02-21T12:45:28;12.10;99.90
15930;DHT22;8064;51.142;4.780;2024-02-21T12:47:54;12.10;99.90
15930;DHT22;8064;51.142;4.780;2024-02-21T12:50:20;12.10;99.90
15930;DHT22;8064;51.142;4.780;2024-02-21T12:52:48;12.10;99.90
15930;DHT22;8064;51.142;4.780;2024-02-21T12:55:15;12.10;99.90
15930;DHT22;8064;51.142;4.780;2024-02-21T12:57:42;12.10;99.90
15930;DHT22;8064;51.142;4.780;2024-02-21T13:00:08;12.10;99.90
15930;DHT22;8064;51.142;4.780;2024-02-21T13:02:35;12.00;99.90
15930;DHT22;8064;51.142;4.780;2024-02-21T13:05:01;12.00;99.90
15930;DHT22;8064;51.142;4.780;2024-02-21T13:07:29;12.00;99.90
15930;DHT22;8064;51.142;4.780;2024-02-21T13:09:56;12.00;99.90
15930;DHT22;8064;51.142;4.780;2024-02-21T13:12:22;12.00;99.90
15930;DHT22;8064;51.142;4.780;2024-02-21T13:14:48;12.00;99.90
15930;DHT22;8064;51.142;4.780;2024-02-21T13:17:14;11.90;99.90
15930;DHT22;8064;51.142;4.780;2024-02-21T13:19:40;12.00;99.90
15930;DHT22;8064;51.142;4.780;2024-02-21T13:22:06;12.00;99.90
15930;DHT22;8064;51.142;4.780;2024-02-21T13:24:32;12.00;99.90
15930;DHT22;8064;51.142;4.780;2024-02-21T13:26:58;12.00;99.90
15930;DHT22;8064;51.142;4.780;2024-02-21T13:29:23;12.00;99.90
15930;DHT22;8064;51.142;4.780;2024-02-21T13:31:49;12.00;99.90
15930;DHT22;8064;51.142;4.780;2024-02-21T13:34:15;12.00;99.90
15930;DHT22;8064;51.142;4.780;2024-02-21T13:36:42;12.10;99.90
15930;DHT22;8064;51.142;4.780;2024-02-21T13:39:08;12.10;99.90
15930;DHT22;8064;51.142;4.780;2024-02-21T13:41:38;12.10;99.90
15930;DHT22;8064;51.142;4.780;2024-02-21T13:44:04;12.10;99.90
15930;DHT22;8064;51.142;4.780;2024-02-21T13:46:29;12.10;99.90
15930;DHT22;8064;51.142;4.780;2024-02-21T13:49:04;12.10;99.90
15930;DHT22;8064;51.142;4.780;2024-02-21T13:51:31;12.10;99.90
15930;DHT22;8064;51.142;4.780;2024-02-21T13:53:56;12.10;99.90
15930;DHT22;8064;51.142;4.780;2024-02-21T13:56:22;12.00;99.90
15930;DHT22;8064;51.142;4.780;2024-02-21T13:58:48;12.00;99.90
15930;DHT22;8064;51.142;4.780;2024-02-21T14:01:13;12.00;99.90
15930;DHT22;8064;51.142;4.780;2024-02-21T14:03:39;12.00;99.90
15930;DHT22;8064;51.142;4.780;2024-02-21T14:06:05;11.90;99.90
15930;DHT22;8064;51.142;4.780;2024-02-21T14:08:30;11.90;99.90
15930;DHT22;8064;51.142;4.780;2024-02-21T14:10:57;11.90;99.90
15930;DHT22;8064;51.142;4.780;2024-02-21T14:13:24;11.80;99.90
15930;DHT22;8064;51.142;4.780;2024-02-21T14:15:50;11.80;99.90
15930;DHT22;8064;51.142;4.780;2024-02-21T14:18:16;11.80;99.90
15930;DHT22;8064;51.142;4.780;2024-02-21T14:20:43;11.70;99.90
15930;DHT22;8064;51.142;4.780;2024-02-21T14:23:08;11.70;99.90
15930;DHT22;8064;51.142;4.780;2024-02-21T14:25:35;11.70;99.90
15930;DHT22;8064;51.142;4.780;2024-02-21T14:28:01;11.60;99.90
15930;DHT22;8064;51.142;4.780;2024-02-21T14:30:26;11.60;99.90
15930;DHT22;8064;51.142;4.780;2024-02-21T14:32:52;11.50;99.90
15930;DHT22;8064;51.142;4.780;2024-02-21T14:35:18;11.50;99.90
15930;DHT22;8064;51.142;4.780;2024-02-21T14:37:44;11.40;99.90
15930;DHT22;8064;51.142;4.780;2024-02-21T14:40:11;11.40;99.90
15930;DHT22;8064;51.142;4.780;2024-02-21T14:42:37;11.40;99.90
15930;DHT22;8064;51.142;4.780;2024-02-21T14:45:04;11.30;99.90
15930;DHT22;8064;51.142;4.780;2024-02-21T14:47:31;11.30;99.90
15930;DHT22;8064;51.142;4.780;2024-02-21T14:49:57;11.30;99.90
15930;DHT22;8064;51.142;4.780;2024-02-21T14:52:23;11.20;99.90
15930;DHT22;8064;51.142;4.780;2024-02-21T14:54:53;11.20;99.90
15930;DHT22;8064;51.142;4.780;2024-02-21T14:57:20;11.20;99.90
15930;DHT22;8064;51.142;4.780;2024-02-21T14:59:46;11.10;99.90
15930;DHT22;8064;51.142;4.780;2024-02-21T15:02:15;11.10;99.90
15930;DHT22;8064;51.142;4.780;2024-02-21T15:04:41;11.10;99.90
15930;DHT22;8064;51.142;4.780;2024-02-21T15:07:06;11.00;99.90
15930;DHT22;8064;51.142;4.780;2024-02-21T15:09:32;11.00;99.90
15930;DHT22;8064;51.142;4.780;2024-02-21T15:11:58;10.90;99.90
15930;DHT22;8064;51.142;4.780;2024-02-21T15:14:24;10.90;99.90
15930;DHT22;8064;51.142;4.780;2024-02-21T15:16:50;10.90;99.90
15930;DHT22;8064;51.142;4.780;2024-02-21T15:19:16;10.90;99.90
15930;DHT22;8064;51.142;4.780;2024-02-21T15:21:41;10.90;99.90
15930;DHT22;8064;51.142;4.780;2024-02-21T15:24:07;10.80;99.90
15930;DHT22;8064;51.142;4.780;2024-02-21T15:26:33;10.80;99.90
15930;DHT22;8064;51.142;4.780;2024-02-21T15:28:58;10.80;99.90
15930;DHT22;8064;51.142;4.780;2024-02-21T15:31:24;10.80;99.90
15930;DHT22;8064;51.142;4.780;2024-02-21T15:33:52;10.80;99.90
15930;DHT22;8064;51.142;4.780;2024-02-21T15:36:18;10.70;99.90
15930;DHT22;8064;51.142;4.780;2024-02-21T15:38:46;10.70;99.90
15930;DHT22;8064;51.142;4.780;2024-02-21T15:41:12;10.70;99.90
15930;DHT22;8064;51.142;4.780;2024-02-21T15:43:40;10.70;99.90
15930;DHT22;8064;51.142;4.780;2024-02-21T15:46:06;10.60;99.90
15930;DHT22;8064;51.142;4.780;2024-02-21T15:48:31;10.60;99.90
15930;DHT22;8064;51.142;4.780;2024-02-21T15:51:00;10.60;99.90
15930;DHT22;8064;51.142;4.780;2024-02-21T15:53:26;10.60;99.90